createdAt,value
2022-12-08T00:02:07.374Z,17.85
2022-12-08T00:04:55.602Z,17.90
2022-12-08T00:07:40.918Z,20.23
2022-12-08T00:10:39.922Z,18.00
2022-12-08T00:12:58.392Z,19.60
2022-12-08T00:15:28.217Z,17.63
2022-12-08T00:17:56.134Z,18.30
2022-12-08T00:20:24.186Z,18.90
2022-12-08T00:22:52.424Z,19.08
2022-12-08T00:25:20.734Z,17.38
2022-12-08T00:27:49.224Z,17.05
2022-12-08T00:30:17.748Z,17.83
2022-12-08T00:32:47.629Z,17.75
2022-12-08T00:35:18.656Z,18.58
2022-12-08T00:37:47.091Z,17.15
2022-12-08T00:40:15.092Z,19.30
2022-12-08T00:42:43.047Z,17.90
2022-12-08T00:45:12.023Z,16.98
2022-12-08T00:47:40.073Z,18.33
2022-12-08T00:50:10.952Z,18.30
2022-12-08T00:52:39.447Z,17.38
2022-12-08T00:55:08.049Z,18.63
2022-12-08T00:57:36.385Z,16.83
2022-12-08T01:00:05.385Z,18.35
2022-12-08T01:02:34.469Z,17.80
2022-12-08T01:05:02.877Z,18.27
2022-12-08T01:07:33.415Z,17.13
2022-12-08T01:10:02.131Z,16.65
2022-12-08T01:12:30.451Z,15.00
2022-12-08T01:15:02.298Z,17.08
2022-12-08T01:17:31.556Z,15.18
2022-12-08T01:19:59.613Z,15.32
2022-12-08T01:22:28.098Z,14.73
2022-12-08T01:24:57.853Z,15.90
2022-12-08T01:27:26.209Z,15.57
2022-12-08T01:29:54.559Z,15.43
2022-12-08T01:32:23.146Z,14.65
2022-12-08T01:34:51.568Z,14.30
2022-12-08T01:37:20.881Z,15.30
2022-12-08T01:39:49.290Z,15.15
2022-12-08T01:42:22.995Z,14.63
2022-12-08T01:44:54.779Z,14.02
2022-12-08T01:47:24.338Z,17.30
2022-12-08T01:49:52.883Z,18.70
2022-12-08T01:52:24.359Z,13.55
2022-12-08T01:54:55.018Z,14.27
2022-12-08T01:57:26.274Z,14.82
2022-12-08T01:59:55.766Z,14.00
2022-12-08T02:02:24.538Z,14.82
2022-12-08T02:04:52.850Z,16.50
2022-12-08T02:07:22.036Z,15.48
2022-12-08T02:09:50.203Z,14.15
2022-12-08T02:12:18.613Z,15.80
2022-12-08T02:14:48.448Z,15.10
2022-12-08T02:17:23.538Z,14.85
2022-12-08T02:20:03.349Z,14.30
2022-12-08T02:22:38.467Z,14.35
2022-12-08T02:25:10.312Z,14.35
2022-12-08T02:27:42.372Z,13.00
2022-12-08T02:30:28.109Z,13.55
2022-12-08T02:33:26.585Z,14.52
2022-12-08T02:36:01.245Z,13.35
2022-12-08T02:38:34.333Z,12.40
2022-12-08T02:41:13.429Z,13.43
2022-12-08T02:43:44.046Z,12.63
2022-12-08T02:46:15.747Z,12.18
2022-12-08T02:48:44.980Z,12.85
2022-12-08T02:51:14.311Z,13.45
2022-12-08T02:53:42.972Z,14.18
2022-12-08T02:56:16.291Z,12.82
2022-12-08T02:58:54.296Z,13.85
2022-12-08T03:01:31.357Z,13.82
2022-12-08T03:04:03.495Z,13.88
2022-12-08T03:06:36.129Z,13.60
2022-12-08T03:09:06.228Z,13.07
2022-12-08T03:11:37.118Z,12.60
2022-12-08T03:14:06.761Z,12.65
2022-12-08T03:16:38.816Z,12.13
2022-12-08T03:19:10.571Z,12.48
2022-12-08T03:21:41.034Z,12.50
2022-12-08T03:24:11.097Z,13.05
2022-12-08T03:26:42.130Z,13.90
2022-12-08T03:29:10.217Z,11.68
2022-12-08T03:31:49.256Z,12.98
2022-12-08T03:34:18.229Z,11.60
2022-12-08T03:36:47.935Z,11.18
2022-12-08T03:39:16.052Z,12.60
2022-12-08T03:41:44.029Z,12.45
2022-12-08T03:44:12.335Z,13.23
2022-12-08T03:46:40.623Z,12.70
2022-12-08T03:49:08.936Z,12.50
2022-12-08T03:51:37.663Z,11.15
2022-12-08T03:54:07.959Z,11.98
2022-12-08T03:56:37.495Z,12.23
2022-12-08T03:59:05.938Z,13.20
2022-12-08T04:01:34.274Z,12.52
2022-12-08T04:04:02.702Z,12.70
2022-12-08T04:06:30.946Z,12.05
2022-12-08T04:08:59.368Z,11.68
2022-12-08T04:11:29.009Z,11.93
2022-12-08T04:13:58.505Z,12.57
2022-12-08T04:16:26.748Z,12.20
2022-12-08T04:18:55.508Z,12.30
2022-12-08T04:21:23.460Z,12.70
2022-12-08T04:23:56.125Z,13.18
2022-12-08T04:26:29.097Z,13.15
2022-12-08T04:28:57.209Z,11.75
2022-12-08T04:31:25.566Z,12.98
2022-12-08T04:33:53.612Z,12.82
2022-12-08T04:36:22.066Z,13.25
2022-12-08T04:38:50.633Z,12.73
2022-12-08T04:41:18.571Z,12.40
2022-12-08T04:43:47.908Z,12.68
2022-12-08T04:46:19.070Z,13.52
2022-12-08T04:48:47.406Z,13.00
2022-12-08T04:51:16.593Z,12.68
2022-12-08T04:53:47.004Z,12.68
2022-12-08T04:56:16.106Z,12.55
2022-12-08T04:58:44.502Z,13.13
2022-12-08T05:01:14.476Z,12.98
2022-12-08T05:03:43.240Z,11.52
2022-12-08T05:06:12.044Z,13.82
2022-12-08T05:08:40.110Z,14.27
2022-12-08T05:11:09.367Z,11.52
2022-12-08T05:13:37.857Z,12.80
2022-12-08T05:16:06.581Z,12.48
2022-12-08T05:18:36.521Z,13.38
2022-12-08T05:21:05.195Z,12.63
2022-12-08T05:23:33.307Z,13.95
2022-12-08T05:26:02.916Z,14.25
2022-12-08T05:28:46.592Z,15.02
2022-12-08T05:31:16.032Z,15.68
2022-12-08T05:33:46.267Z,13.75
2022-12-08T05:36:15.253Z,15.35
2022-12-08T05:38:44.009Z,15.52
2022-12-08T05:41:14.776Z,17.50
2022-12-08T05:43:43.198Z,17.25
2022-12-08T05:46:12.168Z,17.63
2022-12-08T05:48:40.754Z,17.85
2022-12-08T05:51:18.839Z,16.65
2022-12-08T05:53:47.763Z,16.75
2022-12-08T05:56:15.822Z,17.42
2022-12-08T05:58:58.085Z,17.27
2022-12-08T06:01:27.686Z,17.10
2022-12-08T06:03:56.618Z,17.02
2022-12-08T06:06:26.969Z,17.27
2022-12-08T06:08:55.592Z,17.80
2022-12-08T06:11:25.072Z,16.17
2022-12-08T06:13:54.010Z,15.60
2022-12-08T06:16:22.390Z,15.85
2022-12-08T06:18:51.129Z,16.40
2022-12-08T06:21:19.840Z,15.25
2022-12-08T06:23:50.846Z,15.73
2022-12-08T06:26:19.364Z,15.95
2022-12-08T06:28:47.617Z,15.23
2022-12-08T06:31:16.997Z,18.42
2022-12-08T06:33:45.844Z,19.20
2022-12-08T06:36:14.157Z,18.38
2022-12-08T06:38:43.839Z,24.42
2022-12-08T06:41:17.831Z,30.30
2022-12-08T06:43:45.832Z,29.65
2022-12-08T06:46:15.424Z,30.30
2022-12-08T06:48:43.988Z,29.65
2022-12-08T06:51:15.929Z,31.67
2022-12-08T06:53:44.931Z,30.80
2022-12-08T06:56:15.940Z,31.45
2022-12-08T06:58:48.937Z,30.80
2022-12-08T07:01:20.848Z,29.30
2022-12-08T07:03:49.181Z,31.83
2022-12-08T07:06:19.672Z,37.42
2022-12-08T07:08:47.858Z,44.05
2022-12-08T07:11:21.447Z,40.40
2022-12-08T07:13:50.833Z,38.95
2022-12-08T07:16:19.417Z,40.13
2022-12-08T07:18:47.900Z,45.95
2022-12-08T07:21:16.468Z,44.72
2022-12-08T07:23:46.932Z,47.35
2022-12-08T07:26:15.812Z,49.25
2022-12-08T07:28:45.686Z,43.33
2022-12-08T07:31:18.594Z,44.55
2022-12-08T07:33:47.224Z,51.03
2022-12-08T07:36:16.048Z,61.50
2022-12-08T07:38:47.212Z,58.75
2022-12-08T07:41:18.655Z,42.50
2022-12-08T07:43:49.297Z,34.65
2022-12-08T07:46:21.165Z,30.70
2022-12-08T07:48:49.641Z,25.85
2022-12-08T07:51:19.068Z,27.58
2022-12-08T07:53:53.438Z,26.77
2022-12-08T07:56:22.215Z,27.08
2022-12-08T07:58:52.142Z,26.67
2022-12-08T08:01:21.930Z,27.42
2022-12-08T08:03:51.759Z,25.80
2022-12-08T08:06:20.245Z,25.52
2022-12-08T08:08:49.594Z,26.25
2022-12-08T08:11:21.259Z,26.75
2022-12-08T08:13:53.261Z,29.17
2022-12-08T08:16:22.612Z,28.00
2022-12-08T08:19:04.857Z,23.30
2022-12-08T08:21:48.666Z,19.92
2022-12-08T08:24:17.790Z,15.00
2022-12-08T08:26:49.630Z,14.90
2022-12-08T08:29:19.249Z,14.05
2022-12-08T08:31:59.174Z,12.68
2022-12-08T08:34:30.630Z,13.48
2022-12-08T08:36:59.202Z,12.60
2022-12-08T08:39:27.527Z,12.00
2022-12-08T08:41:55.873Z,12.48
2022-12-08T08:44:25.601Z,12.48
2022-12-08T08:46:54.065Z,12.77
2022-12-08T08:49:22.794Z,12.23
2022-12-08T08:51:52.170Z,12.10
2022-12-08T08:54:20.313Z,11.70
2022-12-08T08:56:48.931Z,12.88
2022-12-08T08:59:18.111Z,13.38
2022-12-08T09:01:48.340Z,13.45
2022-12-08T09:04:17.034Z,12.35
2022-12-08T09:06:45.812Z,13.23
2022-12-08T09:09:14.386Z,15.10
2022-12-08T09:11:42.786Z,14.95
2022-12-08T09:14:12.516Z,13.18
2022-12-08T09:16:42.542Z,11.68
2022-12-08T09:19:13.037Z,10.18
2022-12-08T09:21:41.807Z,9.32
2022-12-08T09:24:15.603Z,8.52
2022-12-08T09:26:44.104Z,8.70
2022-12-08T09:29:13.847Z,8.02
2022-12-08T09:31:42.634Z,8.07
2022-12-08T09:34:13.181Z,8.68
2022-12-08T09:36:56.774Z,7.75
2022-12-08T09:39:25.314Z,8.10
2022-12-08T09:41:59.128Z,7.50
2022-12-08T09:44:38.686Z,8.70
2022-12-08T09:47:10.648Z,7.97
2022-12-08T09:49:43.297Z,7.10
2022-12-08T09:52:13.533Z,7.47
2022-12-08T09:54:42.153Z,7.65
2022-12-08T09:57:37.697Z,6.72
2022-12-08T10:00:07.774Z,7.25
2022-12-08T10:02:36.679Z,7.32
2022-12-08T10:05:06.885Z,7.25
2022-12-08T10:07:39.637Z,7.85
2022-12-08T10:10:27.374Z,7.72
2022-12-08T10:12:56.527Z,7.60
2022-12-08T10:15:31.663Z,7.50
2022-12-08T10:18:02.335Z,7.72
2022-12-08T10:20:37.541Z,8.00
2022-12-08T10:23:09.023Z,7.95
2022-12-08T10:25:40.592Z,7.25
2022-12-08T10:28:10.127Z,8.20
2022-12-08T10:30:38.740Z,7.70
2022-12-08T10:33:10.618Z,8.52
2022-12-08T10:35:46.316Z,7.90
2022-12-08T10:38:18.975Z,7.00
2022-12-08T10:40:48.171Z,6.88
2022-12-08T10:43:17.513Z,7.18
2022-12-08T10:45:45.973Z,7.30
2022-12-08T10:48:18.704Z,7.50
2022-12-08T10:50:49.742Z,6.80
2022-12-08T10:53:22.548Z,6.93
2022-12-08T10:55:51.922Z,6.75
2022-12-08T10:58:27.002Z,6.15
2022-12-08T11:00:56.431Z,6.72
2022-12-08T11:03:28.239Z,6.95
2022-12-08T11:06:09.014Z,6.95
2022-12-08T11:08:47.491Z,6.45
2022-12-08T11:11:16.876Z,6.88
2022-12-08T11:13:49.687Z,6.85
2022-12-08T11:16:18.087Z,7.00
2022-12-08T11:18:48.172Z,7.30
2022-12-08T11:21:19.122Z,7.40
2022-12-08T11:23:49.185Z,7.00
2022-12-08T11:26:21.843Z,7.20
2022-12-08T11:28:53.032Z,8.25
2022-12-08T11:31:28.806Z,8.90
2022-12-08T11:33:57.309Z,8.25
2022-12-08T11:36:28.211Z,7.90
2022-12-08T11:38:57.995Z,8.63
2022-12-08T11:41:28.501Z,8.10
2022-12-08T11:44:00.184Z,8.40
2022-12-08T11:46:30.307Z,7.60
2022-12-08T11:49:05.859Z,7.65
2022-12-08T11:51:39.181Z,7.97
2022-12-08T11:54:12.754Z,9.23
2022-12-08T11:56:42.866Z,8.40
2022-12-08T11:59:15.459Z,12.73
2022-12-08T12:01:43.756Z,17.65
2022-12-08T12:04:17.844Z,10.68
2022-12-08T12:07:01.036Z,9.38
2022-12-08T12:09:36.481Z,10.70
2022-12-08T12:12:17.033Z,8.63
2022-12-08T12:14:57.039Z,12.68
2022-12-08T12:17:32.853Z,11.00
2022-12-08T12:20:04.737Z,8.95
2022-12-08T12:22:36.361Z,8.70
2022-12-08T12:25:17.165Z,8.23
2022-12-08T12:27:45.869Z,8.35
2022-12-08T12:30:22.343Z,9.63
2022-12-08T12:32:53.702Z,9.63
2022-12-08T12:35:27.124Z,10.45
2022-12-08T12:37:58.741Z,8.40
2022-12-08T12:40:29.652Z,6.75
2022-12-08T12:43:14.902Z,6.82
2022-12-08T12:45:44.935Z,6.40
2022-12-08T12:48:24.301Z,6.43
2022-12-08T12:50:55.250Z,5.95
2022-12-08T12:53:47.237Z,5.93
2022-12-08T12:56:48.335Z,6.80
2022-12-08T12:59:24.336Z,6.55
2022-12-08T13:01:55.295Z,7.05
2022-12-08T13:04:31.075Z,6.53
2022-12-08T13:07:00.040Z,6.78
2022-12-08T13:09:30.899Z,6.50
2022-12-08T13:12:02.887Z,7.07
2022-12-08T13:14:46.436Z,6.82
2022-12-08T13:17:17.051Z,6.40
2022-12-08T13:19:51.747Z,5.70
2022-12-08T13:22:39.483Z,5.65
2022-12-08T13:25:26.488Z,5.72
2022-12-08T13:27:57.279Z,5.90
2022-12-08T13:30:45.170Z,6.45
2022-12-08T13:33:18.422Z,5.63
2022-12-08T13:35:50.748Z,6.03
2022-12-08T13:38:21.332Z,6.45
2022-12-08T13:40:50.542Z,6.38
2022-12-08T13:43:30.646Z,6.40
2022-12-08T13:57:28.742Z,7.10
2022-12-08T14:00:01.783Z,7.38
2022-12-08T14:02:32.505Z,8.43
2022-12-08T14:05:20.617Z,8.65
2022-12-08T14:07:54.218Z,7.50
2022-12-08T14:10:25.205Z,8.32
2022-12-08T14:12:56.577Z,8.63
2022-12-08T14:15:29.168Z,8.25
2022-12-08T14:17:59.443Z,9.00
2022-12-08T14:20:28.736Z,8.98
2022-12-08T14:22:57.445Z,8.45
2022-12-08T14:25:26.953Z,9.45
2022-12-08T14:27:59.200Z,10.00
2022-12-08T14:30:30.651Z,9.70
2022-12-08T14:32:59.548Z,10.15
2022-12-08T14:35:31.730Z,10.93
2022-12-08T14:38:01.778Z,11.27
2022-12-08T14:40:32.686Z,10.35
2022-12-08T14:43:13.690Z,11.23
2022-12-08T14:45:49.057Z,11.05
2022-12-08T14:48:21.074Z,10.18
2022-12-08T14:50:57.598Z,10.48
2022-12-08T14:53:29.093Z,10.02
2022-12-08T14:55:58.070Z,10.13
2022-12-08T14:58:29.101Z,9.02
2022-12-08T15:00:59.654Z,9.35
2022-12-08T15:03:30.372Z,8.07
2022-12-08T15:05:59.578Z,8.40
2022-12-08T15:08:28.138Z,7.70
2022-12-08T15:11:32.101Z,6.50
2022-12-08T15:14:00.708Z,5.32
2022-12-08T15:16:32.103Z,5.20
2022-12-08T15:19:05.486Z,5.38
2022-12-08T15:21:37.348Z,5.38
2022-12-08T15:24:06.331Z,5.18
2022-12-08T15:26:37.095Z,5.07
2022-12-08T15:29:11.378Z,4.80
2022-12-08T15:31:41.454Z,3.90
2022-12-08T15:34:09.571Z,4.00
2022-12-08T15:36:38.568Z,4.40
2022-12-08T15:39:08.382Z,3.50
2022-12-08T15:41:36.602Z,3.38
2022-12-08T15:44:05.039Z,2.80
2022-12-08T15:46:33.556Z,2.63
2022-12-08T15:49:03.294Z,2.30
2022-12-08T15:51:36.477Z,2.75
2022-12-08T15:54:04.953Z,3.10
2022-12-08T15:56:34.398Z,2.30
2022-12-08T15:59:05.482Z,3.60
2022-12-08T16:01:33.868Z,3.50
2022-12-08T16:09:42.161Z,3.38
2022-12-08T16:12:51.916Z,3.55
2022-12-08T16:18:07.794Z,3.60
2022-12-08T16:21:06.088Z,4.57
2022-12-08T16:23:42.521Z,3.78
2022-12-08T16:26:28.619Z,4.47
2022-12-08T16:29:01.698Z,4.50
2022-12-08T16:31:29.754Z,3.97
2022-12-08T16:33:58.260Z,4.70
2022-12-08T16:36:28.035Z,5.03
2022-12-08T16:38:56.469Z,4.00
2022-12-08T16:41:42.271Z,4.65
2022-12-08T16:44:10.268Z,5.13
2022-12-08T16:46:39.304Z,6.60
2022-12-08T16:49:10.080Z,7.57
2022-12-08T16:51:39.497Z,9.40
2022-12-08T16:54:07.562Z,10.73
2022-12-08T16:56:35.649Z,6.32
2022-12-08T16:59:04.447Z,6.00
2022-12-08T17:01:33.021Z,4.28
2022-12-08T17:04:30.321Z,3.90
2022-12-08T17:06:53.085Z,3.70
2022-12-08T17:09:21.517Z,4.65
2022-12-08T17:11:49.935Z,4.57
2022-12-08T17:14:17.947Z,4.28
2022-12-08T17:16:46.200Z,4.75
2022-12-08T17:19:57.101Z,5.05
2022-12-08T17:22:37.261Z,5.53
2022-12-08T17:25:28.380Z,6.90
2022-12-08T17:27:58.627Z,7.57
2022-12-08T17:30:28.229Z,7.43
2022-12-08T17:32:56.743Z,7.60
2022-12-08T17:35:25.496Z,8.63
2022-12-08T17:37:55.207Z,8.90
2022-12-08T17:40:26.877Z,8.45
2022-12-08T17:42:56.476Z,8.50
2022-12-08T17:45:25.016Z,9.50
2022-12-08T17:47:53.151Z,7.88
2022-12-08T17:50:24.493Z,8.55
2022-12-08T17:52:52.816Z,8.90
2022-12-08T17:55:23.131Z,7.50
2022-12-08T17:57:51.254Z,8.45
2022-12-08T18:00:19.901Z,9.00
2022-12-08T18:02:48.407Z,8.70
2022-12-08T18:05:16.599Z,9.18
2022-12-08T18:07:45.239Z,9.25
2022-12-08T18:10:13.942Z,8.30
2022-12-08T18:12:43.393Z,7.75
2022-12-08T18:15:13.163Z,7.38
2022-12-08T18:17:41.490Z,7.93
2022-12-08T18:20:10.171Z,8.27
2022-12-08T18:22:38.245Z,7.90
2022-12-08T18:25:07.240Z,7.18
2022-12-08T18:27:38.631Z,7.60
2022-12-08T18:30:13.994Z,7.03
2022-12-08T18:32:41.905Z,8.27
2022-12-08T18:35:11.699Z,11.93
2022-12-08T18:37:39.769Z,14.73
2022-12-08T18:40:08.688Z,14.80
2022-12-08T18:42:40.188Z,14.40
2022-12-08T18:45:09.537Z,14.38
2022-12-08T18:47:39.772Z,11.65
2022-12-08T18:50:09.190Z,11.15
2022-12-08T18:52:37.630Z,14.60
2022-12-08T18:55:07.112Z,15.50
2022-12-08T18:57:35.913Z,17.98
2022-12-08T19:00:04.861Z,16.33
2022-12-08T19:02:34.193Z,21.95
2022-12-08T19:05:08.764Z,22.10
2022-12-08T19:07:37.087Z,22.55
2022-12-08T19:10:11.206Z,20.70
2022-12-08T19:12:43.236Z,22.38
2022-12-08T19:15:12.125Z,22.27
2022-12-08T19:17:47.889Z,20.55
2022-12-08T19:20:21.386Z,20.38
2022-12-08T19:22:49.648Z,20.42
2022-12-08T19:25:18.186Z,20.50
2022-12-08T19:27:50.398Z,18.90
2022-12-08T19:30:19.110Z,19.15
2022-12-08T19:32:50.703Z,19.02
2022-12-08T19:35:23.054Z,19.63
2022-12-08T19:38:01.051Z,17.80
2022-12-08T19:40:47.185Z,17.85
2022-12-08T19:43:49.204Z,16.88
2022-12-08T19:46:17.667Z,16.08
2022-12-08T19:48:46.862Z,16.67
2022-12-08T19:51:16.325Z,16.27
2022-12-08T19:53:47.822Z,17.10
2022-12-08T19:56:16.239Z,17.02
2022-12-08T19:58:46.074Z,16.60
2022-12-08T20:01:15.879Z,15.93
2022-12-08T20:03:44.878Z,15.93
2022-12-08T20:06:16.355Z,17.95
2022-12-08T20:08:50.746Z,18.17
2022-12-08T20:11:19.639Z,17.42
2022-12-08T20:13:48.722Z,18.15
2022-12-08T20:16:18.478Z,19.77
2022-12-08T20:18:48.703Z,19.23
2022-12-08T20:21:20.489Z,18.00
2022-12-08T20:23:51.317Z,17.10
2022-12-08T20:26:20.903Z,16.85
2022-12-08T20:28:49.886Z,16.73
2022-12-08T20:31:21.320Z,18.05
2022-12-08T20:33:50.175Z,19.35
2022-12-08T20:36:19.995Z,18.92
2022-12-08T20:38:50.558Z,19.67
2022-12-08T20:41:23.471Z,19.75
2022-12-08T20:43:53.594Z,19.92
2022-12-08T20:46:22.723Z,19.58
2022-12-08T20:48:52.176Z,19.70
2022-12-08T20:51:23.772Z,18.30
2022-12-08T20:53:55.767Z,16.80
2022-12-08T20:56:26.487Z,17.65
2022-12-08T20:58:55.732Z,16.73
2022-12-08T21:01:25.627Z,17.88
2022-12-08T21:03:53.906Z,20.60
2022-12-08T21:06:23.625Z,19.95
2022-12-08T21:08:52.578Z,21.25
2022-12-08T21:11:21.210Z,20.13
2022-12-08T21:13:50.960Z,20.77
2022-12-08T21:16:19.382Z,20.50
2022-12-08T21:18:48.073Z,20.60
2022-12-08T21:21:17.858Z,19.25
2022-12-08T21:23:46.620Z,20.20
2022-12-08T21:26:16.885Z,20.63
2022-12-08T21:28:45.937Z,21.20
2022-12-08T21:31:16.809Z,22.67
2022-12-08T21:33:45.509Z,22.10
2022-12-08T21:36:14.955Z,21.60
2022-12-08T21:38:44.702Z,22.63
2022-12-08T21:41:13.891Z,23.27
2022-12-08T21:43:42.885Z,21.00
2022-12-08T21:46:17.405Z,24.83
2022-12-08T21:48:46.059Z,23.73
2022-12-08T21:51:14.597Z,23.98
2022-12-08T21:53:43.037Z,23.83
2022-12-08T21:56:11.442Z,24.25
2022-12-08T21:58:40.295Z,23.52
2022-12-08T22:01:08.943Z,23.00
2022-12-08T22:03:39.840Z,22.75
2022-12-08T22:06:08.840Z,23.17
2022-12-08T22:08:37.435Z,23.55
2022-12-08T22:11:06.742Z,24.70
2022-12-08T22:13:35.744Z,24.38
2022-12-08T22:16:05.316Z,26.00
2022-12-08T22:18:34.456Z,29.67
2022-12-08T22:21:04.436Z,27.42
2022-12-08T22:23:32.691Z,24.70
2022-12-08T22:26:02.518Z,25.77
2022-12-08T22:28:32.311Z,21.40
2022-12-08T22:31:00.868Z,16.48
2022-12-08T22:33:29.749Z,15.23
2022-12-08T22:35:58.648Z,15.40
2022-12-08T22:38:28.472Z,14.52
2022-12-08T22:40:56.565Z,14.55
2022-12-08T22:43:24.649Z,14.32
2022-12-08T22:45:52.676Z,15.10
2022-12-08T22:48:22.012Z,15.38
2022-12-08T22:50:50.277Z,15.80
2022-12-08T22:53:19.013Z,15.98
2022-12-08T22:55:49.000Z,16.80
2022-12-08T22:58:17.791Z,14.85
2022-12-08T23:00:45.922Z,15.23
2022-12-08T23:03:13.997Z,14.63
2022-12-08T23:05:42.363Z,15.10
2022-12-08T23:08:10.852Z,15.38
2022-12-08T23:10:41.099Z,14.70
2022-12-08T23:13:11.124Z,14.98
2022-12-08T23:15:39.846Z,15.18
2022-12-08T23:18:09.123Z,15.05
2022-12-08T23:20:37.382Z,14.40
2022-12-08T23:23:05.655Z,16.60
2022-12-08T23:25:33.647Z,20.40
2022-12-08T23:28:02.327Z,19.20
2022-12-08T23:30:32.707Z,19.20
2022-12-08T23:33:00.956Z,20.05
2022-12-08T23:35:29.837Z,20.30
2022-12-08T23:37:58.076Z,20.48
2022-12-08T23:40:26.701Z,20.23
2022-12-08T23:42:54.933Z,19.70
2022-12-08T23:45:23.500Z,21.10
2022-12-08T23:47:53.184Z,21.42
2022-12-08T23:50:21.425Z,20.45
2022-12-08T23:52:49.557Z,20.75
2022-12-08T23:55:17.891Z,20.00
2022-12-08T23:57:45.923Z,20.38
